createdAt,value
2022-08-02T01:02:38.130Z,99564.19
2022-08-02T01:04:12.576Z,99564.19
2022-08-02T01:05:55.866Z,99572.19
2022-08-02T01:07:37.655Z,99560.19
2022-08-02T01:09:10.340Z,99562.97
2022-08-02T01:10:42.409Z,99567.44
2022-08-02T01:12:15.098Z,99567.56
2022-08-02T01:13:47.518Z,99564.19
2022-08-02T01:15:19.801Z,99572.97
2022-08-02T01:17:27.028Z,99567.84
2022-08-02T01:19:03.293Z,99576.78
2022-08-02T01:20:57.451Z,99575.22
2022-08-02T01:23:01.171Z,99576.28
2022-08-02T01:25:06.249Z,99572.69
2022-08-02T01:26:47.043Z,99575.38
2022-08-02T01:28:54.213Z,99575.53
2022-08-02T01:30:27.236Z,99577.38
2022-08-02T01:32:16.032Z,99579.06
2022-08-02T01:34:05.699Z,99584.13
2022-08-02T01:35:47.353Z,99575.38
2022-08-02T01:37:28.778Z,99581.47
2022-08-02T01:39:02.639Z,99583.31
2022-08-02T01:40:37.128Z,99583.44
2022-08-02T01:42:09.865Z,99581.03
2022-08-02T01:43:42.964Z,99585.50
2022-08-02T01:45:15.457Z,99584.72
2022-08-02T01:46:48.355Z,99585.94
2022-08-02T01:48:21.167Z,99587.00
2022-08-02T01:49:55.636Z,99583.56
2022-08-02T01:51:47.099Z,99581.00
2022-08-02T01:53:21.344Z,99580.22
2022-08-02T01:55:06.425Z,99575.00
2022-08-02T01:56:38.963Z,99578.63
2022-08-02T01:58:14.971Z,99580.34
2022-08-02T01:59:47.470Z,99573.56
2022-08-02T02:01:19.980Z,99577.13
2022-08-02T02:02:54.741Z,99577.97
2022-08-02T02:04:28.938Z,99572.75
2022-08-02T02:06:02.400Z,99579.75
2022-08-02T02:07:35.407Z,99575.34
2022-08-02T02:09:08.528Z,99576.19
2022-08-02T02:10:41.339Z,99571.91
2022-08-02T02:12:14.926Z,99567.50
2022-08-02T02:13:47.980Z,99572.91
2022-08-02T02:15:22.018Z,99567.91
2022-08-02T02:16:54.588Z,99576.66
2022-08-02T02:18:28.486Z,99576.75
2022-08-02T02:20:01.678Z,99574.16
2022-08-02T02:21:35.108Z,99574.44
2022-08-02T02:23:07.445Z,99572.72
2022-08-02T02:24:40.157Z,99572.00
2022-08-02T02:26:14.747Z,99579.94
2022-08-02T02:28:05.477Z,99575.38
2022-08-02T02:29:41.311Z,99579.06
2022-08-02T02:31:20.702Z,99584.44
2022-08-02T02:32:54.500Z,99582.81
2022-08-02T02:34:34.762Z,99580.22
2022-08-02T02:36:08.534Z,99585.50
2022-08-02T02:37:41.188Z,99589.09
2022-08-02T02:39:15.195Z,99589.94
2022-08-02T02:40:48.353Z,99593.53
2022-08-02T02:42:23.118Z,99584.94
2022-08-02T02:43:56.409Z,99592.88
2022-08-02T02:45:30.621Z,99595.44
2022-08-02T02:47:03.570Z,99586.53
2022-08-02T02:48:36.851Z,99595.88
2022-08-02T02:50:10.956Z,99590.66
2022-08-02T02:51:44.229Z,99590.66
2022-08-02T02:53:19.197Z,99594.88
2022-08-02T02:54:52.019Z,99594.03
2022-08-02T02:56:24.607Z,99592.47
2022-08-02T02:57:57.120Z,99584.72
2022-08-02T02:59:29.554Z,99592.75
2022-08-02T03:01:20.222Z,99594.59
2022-08-02T03:02:52.385Z,99592.25
2022-08-02T03:04:25.652Z,99592.38
2022-08-02T03:05:57.709Z,99599.50
2022-08-02T03:07:29.836Z,99592.63
2022-08-02T03:09:01.871Z,99594.41
2022-08-02T03:10:34.500Z,99595.25
2022-08-02T03:12:07.184Z,99591.84
2022-08-02T03:13:40.201Z,99590.13
2022-08-02T03:15:13.509Z,99599.78
2022-08-02T03:16:51.309Z,99598.91
2022-08-02T03:18:40.759Z,99597.22
2022-08-02T03:20:15.749Z,99592.91
2022-08-02T03:21:49.029Z,99596.50
2022-08-02T03:23:30.281Z,99596.56
2022-08-02T03:25:02.313Z,99598.34
2022-08-02T03:26:34.669Z,99592.41
2022-08-02T03:28:06.742Z,99588.25
2022-08-02T03:29:38.805Z,99596.97
2022-08-02T03:31:16.663Z,99594.44
2022-08-02T03:32:49.093Z,99589.47
2022-08-02T03:34:21.847Z,99592.06
2022-08-02T03:36:00.085Z,99590.41
2022-08-02T03:37:34.376Z,99602.66
2022-08-02T03:39:07.339Z,99611.13
2022-08-02T03:40:39.696Z,99613.69
2022-08-02T03:42:15.482Z,99613.47
2022-08-02T03:43:49.552Z,99619.47
2022-08-02T03:45:22.067Z,99618.44
2022-08-02T03:46:54.631Z,99620.06
2022-08-02T03:48:33.923Z,99624.19
2022-08-02T03:50:13.045Z,99623.19
2022-08-02T03:51:45.855Z,99626.59
2022-08-02T03:53:20.230Z,99622.03
2022-08-02T03:54:52.527Z,99621.75
2022-08-02T03:56:24.770Z,99626.63
2022-08-02T03:57:57.075Z,99625.56
2022-08-02T03:59:32.601Z,99628.91
2022-08-02T04:01:04.987Z,99632.16
2022-08-02T04:02:37.441Z,99628.63
2022-08-02T04:04:10.244Z,99632.03
2022-08-02T04:06:03.747Z,99635.47
2022-08-02T04:08:34.299Z,99630.06
2022-08-02T04:09:26.583Z,99629.00
2022-08-02T04:11:17.164Z,99635.66
2022-08-02T04:12:49.289Z,99639.41
2022-08-02T04:14:21.581Z,99636.44
2022-08-02T04:15:56.605Z,99636.88
2022-08-02T04:17:32.666Z,99641.94
2022-08-02T04:19:06.397Z,99635.59
2022-08-02T04:20:39.198Z,99644.16
2022-08-02T04:22:15.796Z,99644.69
2022-08-02T04:23:49.264Z,99643.56
2022-08-02T04:25:34.436Z,99633.88
2022-08-02T04:27:51.321Z,99638.81
2022-08-02T04:29:04.646Z,99633.19
2022-08-02T04:30:37.946Z,99630.34
2022-08-02T04:32:10.606Z,99629.28
2022-08-02T04:33:43.128Z,99625.53
2022-08-02T04:35:19.858Z,99624.38
2022-08-02T04:36:52.715Z,99629.31
2022-08-02T04:38:25.342Z,99624.63
2022-08-02T04:39:57.747Z,99627.81
2022-08-02T04:41:44.376Z,99626.34
2022-08-02T04:43:16.714Z,99627.66
2022-08-02T04:44:49.440Z,99627.16
2022-08-02T04:46:21.612Z,99627.47
2022-08-02T04:48:03.473Z,99627.75
2022-08-02T04:49:36.639Z,99627.19
2022-08-02T04:51:08.945Z,99631.13
2022-08-02T04:52:45.691Z,99625.63
2022-08-02T04:54:18.098Z,99629.00
2022-08-02T04:55:50.514Z,99635.69
2022-08-02T04:57:41.366Z,99631.94
2022-08-02T04:59:25.152Z,99636.75
2022-08-02T05:00:57.370Z,99630.16
2022-08-02T05:02:29.599Z,99626.59
2022-08-02T05:04:02.242Z,99626.41
2022-08-02T05:05:34.546Z,99631.66
2022-08-02T05:07:06.584Z,99630.13
2022-08-02T05:08:38.786Z,99625.09
2022-08-02T05:10:11.398Z,99626.00
2022-08-02T05:11:43.490Z,99625.50
2022-08-02T05:13:27.125Z,99626.63
2022-08-02T05:14:59.254Z,99621.66
2022-08-02T05:16:32.362Z,99630.00
2022-08-02T05:18:04.529Z,99626.84
2022-08-02T05:19:36.666Z,99630.78
2022-08-02T05:21:08.778Z,99636.25
2022-08-02T05:22:41.473Z,99643.28
2022-08-02T05:24:14.387Z,99642.63
2022-08-02T05:25:46.712Z,99643.00
2022-08-02T05:27:21.839Z,99649.59
2022-08-02T05:28:54.570Z,99644.31
2022-08-02T05:30:27.677Z,99654.81
2022-08-02T05:32:00.681Z,99651.66
2022-08-02T05:33:32.955Z,99650.16
2022-08-02T05:35:08.118Z,99648.59
2022-08-02T05:36:42.257Z,99651.50
2022-08-02T05:38:14.449Z,99646.59
2022-08-02T05:39:55.997Z,99646.81
2022-08-02T05:41:28.275Z,99647.28
2022-08-02T05:43:00.556Z,99646.88
2022-08-02T05:44:32.680Z,99642.88
2022-08-02T05:46:05.398Z,99650.19
2022-08-02T05:47:37.963Z,99657.47
2022-08-02T05:49:10.085Z,99649.66
2022-08-02T05:50:46.046Z,99658.44
2022-08-02T05:52:19.817Z,99653.50
2022-08-02T05:53:59.450Z,99650.31
2022-08-02T05:55:35.416Z,99644.44
2022-08-02T05:57:33.644Z,99651.34
2022-08-02T05:59:32.696Z,99652.41
2022-08-02T06:01:05.256Z,99655.13
2022-08-02T06:02:42.867Z,99658.91
2022-08-02T06:04:26.910Z,99654.25
2022-08-02T06:06:12.093Z,99658.22
2022-08-02T06:07:46.455Z,99661.59
2022-08-02T06:09:22.990Z,99663.94
2022-08-02T06:11:02.157Z,99665.19
2022-08-02T06:12:38.348Z,99668.47
2022-08-02T06:14:11.616Z,99668.38
2022-08-02T06:15:53.451Z,99671.50
2022-08-02T06:17:26.466Z,99672.34
2022-08-02T06:19:00.518Z,99668.31
2022-08-02T06:20:36.016Z,99672.28
2022-08-02T06:22:34.022Z,99675.56
2022-08-02T06:24:13.608Z,99676.56
2022-08-02T06:25:51.181Z,99677.91
2022-08-02T06:27:27.265Z,99682.50
2022-08-02T06:28:59.425Z,99686.59
2022-08-02T06:30:33.392Z,99686.88
2022-08-02T06:32:07.506Z,99688.09
2022-08-02T06:33:39.869Z,99693.94
2022-08-02T06:35:11.868Z,99697.78
2022-08-02T06:36:55.991Z,99690.97
2022-08-02T06:38:32.091Z,99688.81
2022-08-02T06:40:11.960Z,99695.44
2022-08-02T06:41:45.324Z,99692.44
2022-08-02T06:43:35.818Z,99693.78
2022-08-02T06:45:11.609Z,99686.59
2022-08-02T06:47:11.647Z,99701.13
2022-08-02T06:48:37.377Z,99692.72
2022-08-02T06:50:11.123Z,99701.03
2022-08-02T06:51:46.385Z,99688.53
2022-08-02T06:53:18.986Z,99693.69
2022-08-02T06:54:51.137Z,99695.00
2022-08-02T06:56:23.325Z,99698.28
2022-08-02T06:57:55.509Z,99696.25
2022-08-02T06:59:27.586Z,99694.09
2022-08-02T07:00:59.585Z,99696.25
2022-08-02T07:02:32.103Z,99701.06
2022-08-02T07:04:05.265Z,99702.50
2022-08-02T07:05:37.147Z,99699.00
2022-08-02T07:07:09.118Z,99708.28
2022-08-02T07:08:41.170Z,99701.78
2022-08-02T07:10:15.004Z,99696.72
2022-08-02T07:11:47.172Z,99698.00
2022-08-02T07:13:19.339Z,99705.72
2022-08-02T07:14:52.154Z,99704.25
2022-08-02T07:16:24.325Z,99704.00
2022-08-02T07:17:56.717Z,99710.50
2022-08-02T07:19:37.991Z,99704.00
2022-08-02T07:21:10.533Z,99708.09
2022-08-02T07:22:42.847Z,99712.75
2022-08-02T07:24:15.242Z,99710.69
2022-08-02T07:26:02.818Z,99713.81
2022-08-02T07:27:36.289Z,99708.13
2022-08-02T07:29:08.352Z,99708.84
2022-08-02T07:30:40.459Z,99703.31
2022-08-02T07:32:12.862Z,99709.31
2022-08-02T07:33:47.086Z,99712.53
2022-08-02T07:35:20.006Z,99705.28
2022-08-02T07:36:53.336Z,99698.78
2022-08-02T07:38:26.243Z,99697.44
2022-08-02T07:39:58.646Z,99698.84
2022-08-02T07:41:40.605Z,99695.41
2022-08-02T07:43:12.927Z,99697.75
2022-08-02T07:44:49.151Z,99693.69
2022-08-02T07:46:21.572Z,99696.13
2022-08-02T07:47:53.970Z,99686.78
2022-08-02T07:49:26.238Z,99687.22
2022-08-02T07:50:58.443Z,99685.00
2022-08-02T07:52:30.848Z,99696.91
2022-08-02T07:54:04.277Z,99695.69
2022-08-02T07:55:39.739Z,99688.72
2022-08-02T07:57:13.146Z,99684.13
2022-08-02T07:58:45.487Z,99695.41
2022-08-02T08:00:18.211Z,99687.06
2022-08-02T08:01:51.862Z,99688.50
2022-08-02T08:03:24.365Z,99699.31
2022-08-02T08:04:56.769Z,99692.25
2022-08-02T08:06:29.436Z,99694.50
2022-08-02T08:08:01.780Z,99699.25
2022-08-02T08:09:33.882Z,99696.44
2022-08-02T08:11:07.232Z,99701.22
2022-08-02T08:12:39.804Z,99700.13
2022-08-02T08:14:16.292Z,99686.69
2022-08-02T08:15:51.799Z,99689.81
2022-08-02T08:17:25.398Z,99690.63
2022-08-02T08:18:57.966Z,99687.03
2022-08-02T08:20:30.089Z,99684.78
2022-08-02T08:22:02.373Z,99687.84
2022-08-02T08:23:35.808Z,99680.59
2022-08-02T08:25:08.391Z,99685.91
2022-08-02T08:26:40.804Z,99685.94
2022-08-02T08:28:13.086Z,99686.38
2022-08-02T08:29:46.371Z,99680.63
2022-08-02T08:31:19.247Z,99685.81
2022-08-02T08:32:51.832Z,99683.56
2022-08-02T08:34:24.687Z,99683.06
2022-08-02T08:36:00.032Z,99674.78
2022-08-02T08:37:38.278Z,99675.09
2022-08-02T08:39:10.813Z,99677.88
2022-08-02T08:40:43.172Z,99675.09
2022-08-02T08:42:15.437Z,99675.09
2022-08-02T08:43:53.402Z,99672.00
2022-08-02T08:45:26.086Z,99671.72
2022-08-02T08:46:59.290Z,99670.31
2022-08-02T08:48:32.326Z,99663.88
2022-08-02T08:50:11.715Z,99664.56
2022-08-02T08:51:50.731Z,99656.34
2022-08-02T08:53:36.532Z,99659.69
2022-08-02T08:55:12.293Z,99662.19
2022-08-02T08:56:44.937Z,99664.16
2022-08-02T08:58:17.258Z,99658.25
2022-08-02T08:59:49.465Z,99659.22
2022-08-02T09:01:22.184Z,99657.72
2022-08-02T09:02:54.533Z,99648.16
2022-08-02T09:04:27.612Z,99660.16
2022-08-02T09:05:59.895Z,99659.03
2022-08-02T09:07:32.218Z,99650.09
2022-08-02T09:09:04.699Z,99659.53
2022-08-02T09:10:45.246Z,99660.66
2022-08-02T09:12:18.739Z,99655.31
2022-08-02T09:13:56.138Z,99658.53
2022-08-02T09:15:28.454Z,99663.00
2022-08-02T09:17:08.476Z,99652.22
2022-08-02T09:18:45.322Z,99654.59
2022-08-02T09:20:18.665Z,99650.78
2022-08-02T09:22:01.965Z,99653.84
2022-08-02T09:23:39.214Z,99652.13
2022-08-02T09:25:16.499Z,99650.13
2022-08-02T09:26:50.895Z,99647.84
2022-08-02T09:28:26.975Z,99648.78
2022-08-02T09:30:12.513Z,99640.25
2022-08-02T09:31:49.433Z,99645.97
2022-08-02T09:33:29.615Z,99640.19
2022-08-02T09:35:01.948Z,99644.38
2022-08-02T09:36:43.813Z,99636.75
2022-08-02T09:38:16.107Z,99643.16
2022-08-02T09:39:48.700Z,99644.22
2022-08-02T09:41:31.295Z,99628.50
2022-08-02T09:43:03.807Z,99642.28
2022-08-02T09:44:36.217Z,99630.88
2022-08-02T09:46:22.974Z,99637.34
2022-08-02T09:47:57.031Z,99632.59
2022-08-02T09:49:29.503Z,99630.38
2022-08-02T09:51:01.774Z,99638.38
2022-08-02T09:52:43.637Z,99635.94
2022-08-02T09:54:24.816Z,99624.66
2022-08-02T09:55:57.371Z,99631.22
2022-08-02T09:57:30.820Z,99628.81
2022-08-02T09:59:07.314Z,99621.03
2022-08-02T10:00:55.896Z,99628.13
2022-08-02T10:02:28.577Z,99622.47
2022-08-02T10:04:07.149Z,99628.66
2022-08-02T10:05:55.448Z,99615.06
2022-08-02T10:07:29.311Z,99626.97
2022-08-02T10:09:02.189Z,99630.13
2022-08-02T10:10:34.746Z,99624.03
2022-08-02T10:12:07.496Z,99622.84
2022-08-02T10:13:39.873Z,99624.22
2022-08-02T10:15:12.383Z,99627.09
2022-08-02T10:16:45.116Z,99626.19
2022-08-02T10:18:36.916Z,99621.91
2022-08-02T10:20:10.248Z,99623.75
2022-08-02T10:22:02.832Z,99629.06
2022-08-02T10:23:35.246Z,99620.88
2022-08-02T10:25:08.747Z,99622.16
2022-08-02T10:26:43.496Z,99614.78
2022-08-02T10:28:17.443Z,99622.72
2022-08-02T10:29:54.147Z,99604.50
2022-08-02T10:31:47.394Z,99611.97
2022-08-02T10:33:20.106Z,99609.19
2022-08-02T10:35:02.776Z,99613.38
2022-08-02T10:36:53.703Z,99610.03
2022-08-02T10:38:26.734Z,99605.94
2022-08-02T10:39:59.006Z,99605.41
2022-08-02T10:41:47.693Z,99599.53
2022-08-02T10:43:32.233Z,99597.59
2022-08-02T10:45:11.928Z,99603.28
2022-08-02T10:46:44.409Z,99599.81
2022-08-02T10:48:17.039Z,99604.59
2022-08-02T10:49:55.945Z,99604.75
2022-08-02T10:52:02.234Z,99603.38
2022-08-02T10:53:35.350Z,99598.16
2022-08-02T10:55:14.628Z,99598.72
2022-08-02T10:56:57.381Z,99603.84
2022-08-02T10:58:34.092Z,99602.44
2022-08-02T11:00:32.906Z,99600.31
2022-08-02T11:02:07.212Z,99596.25
2022-08-02T11:03:41.469Z,99593.47
2022-08-02T11:05:43.063Z,99588.81
2022-08-02T11:07:19.766Z,99590.41
2022-08-02T11:08:52.336Z,99595.47
2022-08-02T11:10:31.989Z,99596.63
2022-08-02T11:12:10.114Z,99596.78
2022-08-02T11:14:06.918Z,99602.28
2022-08-02T11:15:52.362Z,99598.66
2022-08-02T11:17:25.687Z,99599.81
2022-08-02T11:18:58.105Z,99604.63
2022-08-02T11:20:30.477Z,99599.03
2022-08-02T11:22:13.324Z,99599.91
2022-08-02T11:23:47.955Z,99602.16
2022-08-02T11:25:23.630Z,99602.31
2022-08-02T11:26:57.372Z,99605.19
2022-08-02T11:28:29.867Z,99600.16
2022-08-02T11:30:02.626Z,99603.50
2022-08-02T11:31:45.040Z,99595.91
2022-08-02T11:33:18.076Z,99589.84
2022-08-02T11:34:51.392Z,99589.34
2022-08-02T11:36:23.806Z,99595.09
2022-08-02T11:37:56.056Z,99588.13
2022-08-02T11:39:28.260Z,99589.41
2022-08-02T11:41:06.191Z,99587.84
2022-08-02T11:42:47.246Z,99588.59
2022-08-02T11:44:23.492Z,99588.94
2022-08-02T11:45:57.130Z,99582.09
2022-08-02T11:47:29.418Z,99580.44
2022-08-02T11:49:16.100Z,99580.31
2022-08-02T11:50:48.563Z,99583.91
2022-08-02T11:52:20.945Z,99578.28
2022-08-02T11:53:57.805Z,99575.03
2022-08-02T11:55:32.071Z,99576.06
2022-08-02T11:57:15.581Z,99578.56
2022-08-02T11:59:08.218Z,99577.78
2022-08-02T12:00:40.629Z,99572.16
2022-08-02T12:02:14.562Z,99577.84
2022-08-02T12:03:47.367Z,99573.56
2022-08-02T12:05:24.654Z,99574.72
2022-08-02T12:07:04.268Z,99569.09
2022-08-02T12:08:40.076Z,99573.31
2022-08-02T12:10:19.212Z,99562.25
2022-08-02T12:11:52.037Z,99560.28
2022-08-02T12:13:24.394Z,99566.97
2022-08-02T12:14:56.799Z,99562.06
2022-08-02T12:16:55.186Z,99561.09
2022-08-02T12:18:46.096Z,99559.94
2022-08-02T12:20:18.505Z,99557.63
2022-08-02T12:22:07.702Z,99554.78
2022-08-02T12:23:59.467Z,99557.19
2022-08-02T12:25:33.953Z,99551.00
2022-08-02T12:27:08.059Z,99561.50
2022-08-02T12:28:42.300Z,99554.16
2022-08-02T12:30:27.496Z,99557.84
2022-08-02T12:32:00.734Z,99560.19
2022-08-02T12:33:52.031Z,99559.00
2022-08-02T12:35:31.476Z,99546.97
2022-08-02T12:37:09.290Z,99546.13
2022-08-02T12:38:53.846Z,99549.63
2022-08-02T12:40:31.217Z,99550.28
2022-08-02T12:42:04.542Z,99545.13
2022-08-02T12:43:43.472Z,99548.66
2022-08-02T12:45:16.112Z,99541.78
2022-08-02T12:47:08.112Z,99548.66
2022-08-02T12:48:56.523Z,99545.13
2022-08-02T12:50:37.675Z,99538.41
2022-08-02T12:52:23.901Z,99537.09
2022-08-02T12:54:13.238Z,99541.59
2022-08-02T12:56:02.453Z,99539.06
2022-08-02T12:57:52.252Z,99531.38
2022-08-02T12:59:45.567Z,99534.38
2022-08-02T13:01:22.624Z,99530.88
2022-08-02T13:02:55.237Z,99530.00
2022-08-02T13:04:27.478Z,99528.63
2022-08-02T13:06:11.861Z,99528.63
2022-08-02T13:07:49.554Z,99531.13
2022-08-02T13:09:27.217Z,99525.31
2022-08-02T13:11:01.544Z,99522.72
2022-08-02T13:12:35.000Z,99536.25
2022-08-02T13:14:07.442Z,99531.59
2022-08-02T13:15:49.315Z,99527.94
2022-08-02T13:17:23.352Z,99536.97
2022-08-02T13:18:55.771Z,99535.78
2022-08-02T13:20:29.083Z,99536.78
2022-08-02T13:22:03.623Z,99532.78
2022-08-02T13:23:54.859Z,99531.13
2022-08-02T13:25:27.715Z,99528.44
2022-08-02T13:27:00.114Z,99526.75
2022-08-02T13:28:39.568Z,99529.25
2022-08-02T13:30:11.869Z,99527.88
2022-08-02T13:31:44.454Z,99519.69
2022-08-02T13:33:17.050Z,99518.66
2022-08-02T13:34:49.571Z,99531.00
2022-08-02T13:36:21.694Z,99525.47
2022-08-02T13:37:53.817Z,99522.91
2022-08-02T13:39:26.315Z,99521.72
2022-08-02T13:41:10.372Z,99527.41
2022-08-02T13:42:42.664Z,99527.91
2022-08-02T13:44:15.047Z,99519.00
2022-08-02T13:45:47.607Z,99524.69
2022-08-02T13:47:35.812Z,99521.88
2022-08-02T13:49:17.850Z,99527.28
2022-08-02T13:50:51.189Z,99526.19
2022-08-02T13:52:23.643Z,99524.38
2022-08-02T13:53:55.806Z,99530.75
2022-08-02T13:55:28.418Z,99517.91
2022-08-02T13:57:01.194Z,99529.44
2022-08-02T13:58:33.565Z,99525.56
2022-08-02T14:00:06.721Z,99529.88
2022-08-02T14:01:39.388Z,99531.41
2022-08-02T14:03:11.936Z,99528.06
2022-08-02T14:04:44.849Z,99527.53
2022-08-02T14:06:17.543Z,99528.03
2022-08-02T14:07:49.764Z,99526.84
2022-08-02T14:09:21.954Z,99525.84
2022-08-02T14:10:54.444Z,99520.25
2022-08-02T14:12:26.748Z,99522.06
2022-08-02T14:13:59.340Z,99521.59
2022-08-02T14:15:32.139Z,99520.41
2022-08-02T14:17:04.614Z,99524.25
2022-08-02T14:18:37.184Z,99518.81
2022-08-02T14:20:16.164Z,99519.66
2022-08-02T14:21:51.015Z,99513.84
2022-08-02T14:23:48.986Z,99517.38
2022-08-02T14:25:16.223Z,99522.22
2022-08-02T14:26:49.623Z,99523.06
2022-08-02T14:28:22.091Z,99515.91
2022-08-02T14:30:01.750Z,99518.06
2022-08-02T14:31:34.237Z,99515.59
2022-08-02T14:33:06.835Z,99516.06
2022-08-02T14:34:39.058Z,99517.72
2022-08-02T14:36:11.636Z,99516.41
2022-08-02T14:37:44.107Z,99514.84
2022-08-02T14:39:16.494Z,99520.72
2022-08-02T14:40:48.978Z,99516.69
2022-08-02T14:42:21.387Z,99514.69
2022-08-02T14:44:05.605Z,99518.84
2022-08-02T14:45:40.744Z,99508.69
2022-08-02T14:47:15.941Z,99507.66
2022-08-02T14:48:48.341Z,99514.53
2022-08-02T14:50:21.110Z,99517.00
2022-08-02T14:51:56.785Z,99520.34
2022-08-02T14:53:29.084Z,99510.66
2022-08-02T14:55:12.982Z,99519.03
2022-08-02T14:56:49.164Z,99523.38
2022-08-02T14:58:21.659Z,99514.53
2022-08-02T14:59:54.030Z,99517.38
2022-08-02T15:01:26.553Z,99508.38
2022-08-02T15:02:59.201Z,99509.22
2022-08-02T15:04:42.663Z,99519.25
2022-08-02T15:06:15.345Z,99514.38
2022-08-02T15:07:49.658Z,99518.69
2022-08-02T15:09:22.696Z,99515.19
2022-08-02T15:10:54.987Z,99512.34
2022-08-02T15:12:30.346Z,99515.69
2022-08-02T15:14:03.759Z,99511.84
2022-08-02T15:15:43.214Z,99510.50
2022-08-02T15:17:16.158Z,99516.16
2022-08-02T15:18:48.558Z,99514.16
2022-08-02T15:20:25.185Z,99516.31
2022-08-02T15:21:58.205Z,99501.97
2022-08-02T15:23:38.577Z,99510.16
2022-08-02T15:25:14.816Z,99514.34
2022-08-02T15:26:47.500Z,99514.72
2022-08-02T15:28:19.905Z,99512.38
2022-08-02T15:29:52.478Z,99519.41
2022-08-02T15:31:33.233Z,99512.06
2022-08-02T15:33:06.639Z,99505.34
2022-08-02T15:34:39.155Z,99511.72
2022-08-02T15:36:11.978Z,99513.22
2022-08-02T15:37:44.244Z,99507.19
2022-08-02T15:39:16.613Z,99501.31
2022-08-02T15:40:49.003Z,99509.69
2022-08-02T15:42:21.554Z,99510.38
2022-08-02T15:44:03.404Z,99507.84
2022-08-02T15:45:36.863Z,99518.84
2022-08-02T15:47:09.134Z,99518.03
2022-08-02T15:48:41.965Z,99509.50
2022-08-02T15:50:14.237Z,99511.34
2022-08-02T15:51:46.749Z,99505.16
2022-08-02T15:53:19.119Z,99507.00
2022-08-02T15:54:54.477Z,99509.50
2022-08-02T15:56:29.083Z,99512.34
2022-08-02T15:58:01.379Z,99514.84
2022-08-02T15:59:33.752Z,99514.53
2022-08-02T16:01:06.246Z,99515.19
2022-08-02T16:02:38.439Z,99512.84
2022-08-02T16:04:10.690Z,99517.00
2022-08-02T16:05:43.131Z,99521.06
2022-08-02T16:07:15.584Z,99514.53
2022-08-02T16:08:54.794Z,99515.34
2022-08-02T16:10:27.283Z,99517.88
2022-08-02T16:11:59.579Z,99513.34
2022-08-02T16:13:53.512Z,99525.06
2022-08-02T16:15:26.706Z,99518.03
2022-08-02T16:16:58.964Z,99528.06
2022-08-02T16:18:31.077Z,99530.75
2022-08-02T16:20:06.071Z,99528.91
2022-08-02T16:21:38.355Z,99528.22
2022-08-02T16:23:10.988Z,99532.44
2022-08-02T16:24:43.321Z,99530.91
2022-08-02T16:26:15.827Z,99534.44
2022-08-02T16:27:59.331Z,99531.09
2022-08-02T16:29:40.050Z,99535.13
2022-08-02T16:31:12.325Z,99535.13
2022-08-02T16:32:44.706Z,99534.94
2022-08-02T16:34:17.527Z,99541.13
2022-08-02T16:35:49.992Z,99535.94
2022-08-02T16:37:22.082Z,99540.78
2022-08-02T16:38:55.173Z,99541.59
2022-08-02T16:40:27.228Z,99546.78
2022-08-02T16:41:59.560Z,99547.13
2022-08-02T16:43:33.646Z,99542.63
2022-08-02T16:45:07.540Z,99545.28
2022-08-02T16:46:39.877Z,99548.94
2022-08-02T16:48:12.256Z,99541.44
2022-08-02T16:50:05.422Z,99547.31
2022-08-02T16:51:37.289Z,99552.00
2022-08-02T16:53:11.304Z,99554.16
2022-08-02T16:54:45.595Z,99546.13
2022-08-02T16:56:22.566Z,99546.94
2022-08-02T16:57:56.913Z,99544.47
2022-08-02T16:59:57.866Z,99545.81
2022-08-02T17:02:11.446Z,99559.84
2022-08-02T17:03:23.121Z,99551.97
2022-08-02T17:04:55.399Z,99561.84
2022-08-02T17:06:27.678Z,99555.50
2022-08-02T17:08:15.167Z,99563.19
2022-08-02T17:10:06.427Z,99566.38
2022-08-02T17:11:45.401Z,99569.38
2022-08-02T17:13:18.964Z,99563.28
2022-08-02T17:14:55.310Z,99573.47
2022-08-02T17:16:27.789Z,99563.41
2022-08-02T17:18:02.253Z,99568.66
2022-08-02T17:19:35.293Z,99567.91
2022-08-02T17:21:10.466Z,99555.47
2022-08-02T17:22:44.193Z,99561.94
2022-08-02T17:24:16.678Z,99561.22
2022-08-02T17:25:52.863Z,99557.81
2022-08-02T17:27:25.647Z,99560.09
2022-08-02T17:29:17.541Z,99565.69
2022-08-02T17:30:52.137Z,99568.34
2022-08-02T17:32:24.418Z,99570.41
2022-08-02T17:34:01.685Z,99569.63
2022-08-02T17:35:52.508Z,99576.25
2022-08-02T17:37:25.373Z,99574.88
2022-08-02T17:38:58.342Z,99569.16
2022-08-02T17:40:32.596Z,99576.31
2022-08-02T17:42:06.459Z,99568.59
2022-08-02T17:43:41.222Z,99568.75
2022-08-02T17:45:24.905Z,99573.38
2022-08-02T17:46:57.734Z,99583.16
2022-08-02T17:48:50.044Z,99577.97
2022-08-02T17:50:27.516Z,99582.69
2022-08-02T17:52:48.560Z,99579.44
2022-08-02T17:53:51.711Z,99592.66
2022-08-02T17:55:23.940Z,99582.28
2022-08-02T17:56:56.174Z,99590.91
2022-08-02T17:58:33.077Z,99581.13
2022-08-02T18:00:09.178Z,99594.31
2022-08-02T18:01:53.030Z,99599.19
2022-08-02T18:03:26.426Z,99591.16
2022-08-02T18:04:58.776Z,99593.50
2022-08-02T18:06:31.580Z,99598.34
2022-08-02T18:08:05.748Z,99592.00
2022-08-02T18:09:39.603Z,99596.28
2022-08-02T18:11:15.848Z,99599.47
2022-08-02T18:12:48.904Z,99603.09
2022-08-02T18:14:21.308Z,99606.38
2022-08-02T18:17:49.736Z,99607.31
2022-08-02T18:19:22.723Z,99614.78
2022-08-02T18:20:55.042Z,99616.50
2022-08-02T18:24:17.431Z,99626.06
2022-08-02T18:25:54.934Z,99628.63
2022-08-02T18:27:27.503Z,99632.72
2022-08-02T18:29:08.793Z,99630.69
2022-08-02T18:30:41.176Z,99634.19
2022-08-02T18:32:13.798Z,99628.63
2022-08-02T18:33:58.269Z,99630.91
2022-08-02T18:35:34.174Z,99635.13
2022-08-02T18:37:06.884Z,99634.88
2022-08-02T18:38:40.595Z,99637.28
2022-08-02T18:40:18.172Z,99645.78
2022-08-02T18:41:50.442Z,99636.78
2022-08-02T18:43:25.370Z,99641.69
2022-08-02T18:44:58.204Z,99638.44
2022-08-02T18:46:31.774Z,99644.09
2022-08-02T18:48:07.459Z,99648.88
2022-08-02T18:49:46.630Z,99645.69
2022-08-02T18:51:21.034Z,99652.19
2022-08-02T18:52:53.579Z,99653.50
2022-08-02T18:54:34.240Z,99657.34
2022-08-02T18:56:07.476Z,99653.22
2022-08-02T18:58:18.760Z,99656.19
2022-08-02T18:59:36.848Z,99663.75
2022-08-02T19:01:14.905Z,99664.91
2022-08-02T19:02:55.940Z,99664.44
2022-08-02T19:04:28.477Z,99666.69
2022-08-02T19:06:00.869Z,99671.56
2022-08-02T19:09:26.069Z,99670.66
2022-08-02T19:10:58.469Z,99673.66
2022-08-02T19:12:35.189Z,99669.75
2022-08-02T19:14:07.395Z,99673.63
2022-08-02T19:15:39.910Z,99670.38
2022-08-02T19:17:53.267Z,99675.97
2022-08-02T19:19:06.787Z,99673.47
2022-08-02T19:20:39.320Z,99681.69
2022-08-02T19:22:19.024Z,99677.47
2022-08-02T19:23:59.297Z,99672.63
2022-08-02T19:25:39.782Z,99675.41
2022-08-02T19:27:32.030Z,99676.56
2022-08-02T19:29:08.811Z,99682.16
2022-08-02T19:30:43.167Z,99683.44
2022-08-02T19:32:42.008Z,99681.09
2022-08-02T19:34:08.802Z,99679.63
2022-08-02T19:36:01.641Z,99682.50
2022-08-02T19:37:39.575Z,99687.47
2022-08-02T19:39:16.709Z,99684.31
2022-08-02T19:40:49.471Z,99683.84
2022-08-02T20:11:54.478Z,99678.34
2022-08-02T20:13:27.783Z,99689.28
2022-08-02T20:15:14.685Z,99686.94
2022-08-02T20:16:47.864Z,99693.41
2022-08-02T20:18:26.695Z,99681.50
2022-08-02T20:20:01.070Z,99682.44
2022-08-02T20:21:35.530Z,99681.38
2022-08-02T20:23:32.020Z,99685.91
2022-08-02T20:25:07.951Z,99682.53
2022-08-02T20:26:47.120Z,99696.00
2022-08-02T20:28:21.352Z,99690.06